• Join FlightAware (Why Join?)
  • Login
  • US Flag 
04:18PM EDT


 

Airport Tracker/Info


-or-


 

Live Flight TrackerFlight Track Log ✈ AAL2345 ✈ 18-Jul-2013 ✈ KORD - KDFW

Flight Track Log - Related Links

Times and Time Zones

All times are in EDT time to prevent confusion due to time zone crossing. See the AAL2345 flight status page for this flight to view local times or setup timezone preferences in your user account.

Time Position Orientation Groundspeed Altitude Reporting Facility
EDT Latitude Longitude Course Direction KTS MPH feet Rate Location/Type
07:14PM 41.9333 -87.9667 253° West 190 219 3,000  Level Chicago TRACON
07:15PM 41.9333 -88.0333 270° West 236 272 4,700 1,860 Climbing Chicago TRACON
07:16PM 41.8381 -88.4597 255° West  Level FlightAware Approximate
07:16PM 41.9411 -88.1306 276° West 252 290 7,000  Level Chicago Center
07:17PM 41.8071 -88.6023 254° West  Level FlightAware Approximate
07:17PM 41.9536 -88.2475 278° West 276 318 10,300  Level Chicago Center
07:18PM 41.7756 -88.7445 253° West  Level FlightAware Approximate
07:18PM 41.9494 -88.3575 267° West 295 339 11,600  Level Chicago Center
07:19PM 41.7439 -88.8863 253° West  Level FlightAware Approximate
07:19PM 41.9242 -88.4842 255° West 344 396 13,800  Level Chicago Center
07:20PM 41.8908 -88.6083 250° West 359 413 16,100 2,100 Climbing Chicago Center
07:21PM 41.8486 -88.7633 250° West 371 427 18,200 1,980 Climbing Chicago Center
07:22PM 41.8119 -88.8967 250° West 383 441 20,200 1,740 Climbing Chicago Center
07:23PM 41.7736 -89.0350 250° West 396 456 21,800 1,440 Climbing Chicago Center
07:24PM 41.7350 -89.1764 250° West 406 467 23,200 1,320 Climbing Chicago Center
07:25PM 41.6950 -89.3222 250° West 417 480 24,600 1,440 Climbing Chicago Center
07:26PM 41.6464 -89.4997 250° West 427 491 26,200 1,380 Climbing Chicago Center
07:27PM 41.6086 -89.6367 250° West 435 501 27,500 1,080 Climbing Chicago Center
07:28PM 41.5661 -89.7869 249° West 435 501 28,500 1,200 Climbing Chicago Center
07:29PM 41.5136 -89.9700 249° West 441 507 30,100 1,200 Climbing Chicago Center
07:30PM 41.4717 -90.1208 250° West 439 505 31,000 900 Climbing Chicago Center
07:31PM 41.4281 -90.2714 249° West 437 503 32,000 780 Climbing Chicago Center
07:32PM 41.3847 -90.4233 249° West 441 507 32,700 540 Climbing Chicago Center
07:33PM 41.3400 -90.5761 249° West 445 512 33,200 540 Climbing Chicago Center
07:34PM 41.2603 -90.7436 238° Southwest 445 512 33,900 360 Climbing Chicago Center
07:36PM 41.1844 -90.8700 231° Southwest 441 507 34,000  Climbing Chicago Center
07:37PM 41.1086 -90.9975 232° Southwest 441 507 34,000  Level Chicago Center
07:38PM 41.0336 -91.1239 232° Southwest 439 505 34,000  Level Chicago Center
07:39PM 40.9572 -91.2506 231° Southwest 441 507 34,000  Level Chicago Center
07:40PM 40.8717 -91.3928 232° Southwest 437 503 34,000  Level Chicago Center
07:41PM 40.7956 -91.5192 232° Southwest 441 507 34,000  Level Chicago Center
07:42PM 40.7186 -91.6425 231° Southwest 440 506 34,000  Level Chicago Center
07:43PM 40.6433 -91.7669 231° Southwest 439 505 34,000  Level Chicago Center
07:44PM 40.5539 -91.9133 231° Southwest 432 497 34,000  Level Chicago Center
07:45PM 40.4794 -92.0361 231° Southwest 433 498 34,000  Level Chicago Center
07:46PM 40.4186 -92.1336 231° Southwest 433 498 34,000  Level Kansas City Center
07:47PM 40.3433 -92.2553 231° Southwest 433 498 34,000  Level Kansas City Center
07:48PM 40.2597 -92.3858 230° Southwest 430 495 34,000  Level Kansas City Center
07:49PM 40.1719 -92.5242 230° Southwest 439 505 34,000  Level Kansas City Center
07:50PM 40.0947 -92.6325 227° Southwest 427 491 34,000  Level Kansas City Center
07:51PM 39.9936 -92.7386 219° Southwest 433 498 34,000  Level Kansas City Center
07:52PM 39.8981 -92.8364 218° Southwest 437 503 34,000  Level Kansas City Center
07:53PM 39.8056 -92.9328 219° Southwest 433 498 34,000  Level Kansas City Center
07:54PM 39.7133 -93.0331 220° Southwest 435 501 34,000  Level Kansas City Center
07:55PM 39.6178 -93.1261 217° Southwest 434 499 34,000  Level Kansas City Center
07:56PM 39.5064 -93.2425 219° Southwest 433 498 34,000  Level Kansas City Center
07:57PM 39.4144 -93.3383 219° Southwest 430 495 34,000  Level Kansas City Center
07:58PM 39.3219 -93.4322 218° Southwest 428 493 34,000  Level Kansas City Center
07:59PM 39.2242 -93.5333 219° Southwest 426 490 34,000  Level Kansas City Center
08:00PM 39.1200 -93.6411 219° Southwest 429 494 34,000  Level Kansas City Center
08:01PM 39.0289 -93.7331 218° Southwest 431 496 34,000  Level Kansas City Center
08:02PM 38.9242 -93.8389 218° Southwest 429 494 34,000  Level Kansas City Center
08:03PM 38.8342 -93.9294 218° Southwest 428 493 34,000  Level Kansas City Center
08:04PM 38.7281 -93.9869 203° Southwest 434 499 34,000  Level Kansas City Center
08:05PM 38.6008 -94.0417 199° South 431 496 34,000  Level Kansas City Center
08:06PM 38.4936 -94.0878 199° South 425 489 34,000  Level Kansas City Center
08:07PM 38.3669 -94.1431 199° South 426 490 34,000  Level Kansas City Center
08:08PM 38.2575 -94.1911 199° South 430 495 34,000  Level Kansas City Center
08:09PM 38.1303 -94.2481 199° South 432 497 34,000  Level Kansas City Center
08:10PM 38.0231 -94.2953 199° South 427 491 34,000  Level Kansas City Center
08:12PM 37.8983 -94.3497 199° South 426 490 34,000  Level Kansas City Center
08:13PM 37.7881 -94.3978 199° South 421 484 34,000  Level Kansas City Center
08:14PM 37.6731 -94.4425 197° South 428 493 34,000  Level Kansas City Center
08:15PM 37.5569 -94.4775 193° South 427 491 34,000  Level Kansas City Center
08:16PM 37.4389 -94.5119 193° South 432 497 34,000  Level Kansas City Center
08:17PM 37.3344 -94.5875 210° Southwest 438 504 34,000  Level Kansas City Center
08:18PM 37.2250 -94.7058 221° Southwest 433 498 34,000  Level Kansas City Center
08:19PM 37.1339 -94.8028 220° Southwest 430 495 34,000  Level Kansas City Center
08:20PM 37.0417 -94.8986 220° Southwest 430 495 34,000  Level Kansas City Center
08:21PM 36.9503 -94.9956 220° Southwest 430 495 34,000  Level Kansas City Center
08:22PM 36.8594 -95.0933 221° Southwest 431 496 34,000  Level Kansas City Center
08:23PM 36.7686 -95.1900 220° Southwest 430 495 34,000  Level Kansas City Center
08:24PM 36.6578 -95.3069 220° Southwest 434 499 34,000  Level Kansas City Center
08:25PM 36.5756 -95.3942 220° Southwest 433 498 34,000  Level Kansas City Center
08:26PM 36.4833 -95.4928 221° Southwest 435 501 34,000  Level Kansas City Center
08:27PM 36.3669 -95.6078 219° Southwest 442 509 34,000  Level Kansas City Center
08:28PM 36.2731 -95.7061 220° Southwest 443 510 34,000  Level Kansas City Center
08:29PM 36.1642 -95.7742 207° Southwest 442 509 34,000  Level Kansas City Center
08:30PM 36.0469 -95.7375 166° South 438 504 34,000  Level Kansas City Center
08:31PM 35.9281 -95.7008 166° South 441 507 34,000  Level Kansas City Center
08:32PM 35.8103 -95.6614 165° South 440 506 34,000 -60 Level Kansas City Center
08:33PM 35.6925 -95.6239 166° South 438 504 33,900 -600 Descending Kansas City Center
08:34PM 35.5997 -95.6011 169° South 433 498 33,000 -1,020 Descending Fort Worth Center
08:35PM 35.4803 -95.5631 165° South 438 504 32,200 -780 Descending Fort Worth Center
08:36PM 35.3628 -95.5247 165° South 438 504 31,500 -600 Descending Fort Worth Center
08:37PM 35.2414 -95.4869 166° South 438 504 31,000 -300 Descending Fort Worth Center
08:38PM 35.1219 -95.4489 165° South 443 510 31,000  Level Fort Worth Center
08:39PM 34.9981 -95.4111 166° South 448 516 31,000  Level Fort Worth Center
08:40PM 34.8767 -95.3711 165° South 454 522 31,000  Level Fort Worth Center
08:41PM 34.7550 -95.3283 164° South 454 522 31,000 -300 Level Fort Worth Center
08:42PM 34.6292 -95.2886 165° South 454 522 30,400 -900 Descending Fort Worth Center
08:43PM 34.4958 -95.3144 189° South 440 506 29,200 -1,500 Descending Fort Worth Center
08:44PM 34.4061 -95.4300 227° Southwest 419 482 27,500 -1,680 Descending Fort Worth Center
08:45PM 34.3161 -95.5453 227° Southwest 443 510 25,900 -1,500 Descending Fort Worth Center
08:46PM 34.2297 -95.6500 225° Southwest 463 533 24,600 -1,200 Descending Fort Worth Center
08:47PM 34.1478 -95.7522 226° Southwest 443 510 23,600 -1,560 Descending Fort Worth Center
08:48PM 34.0822 -95.8361 227° Southwest 410 472 21,500 -2,100 Descending Fort Worth Center
08:49PM 34.0019 -95.9328 225° Southwest 400 460 19,500 -1,860 Descending Fort Worth Center
08:50PM 33.9278 -96.0267 226° Southwest 400 460 17,800 -1,860 Descending Fort Worth Center
08:51PM 33.8536 -96.1128 224° Southwest 384 442 15,800 -2,040 Descending Fort Worth Center
08:52PM 33.7753 -96.2067 225° Southwest 366 421 13,800 -1,560 Descending Fort Worth Center
08:53PM 33.7092 -96.2872 225° Southwest 352 405 12,700 -1,200 Descending Fort Worth Center
08:54PM 33.6494 -96.3606 226° Southwest 319 367 11,500 -1,200 Descending Fort Worth Center
08:55PM 33.5894 -96.4311 224° Southwest 313 360 10,300 -1,260 Descending Fort Worth Center
08:56PM 33.5294 -96.5014 224° Southwest 301 346 9,000 -660 Descending Fort Worth Center
08:57PM 33.4775 -96.5617 224° Southwest 301 346 9,000 -360 Level Fort Worth Center
08:58PM 33.4258 -96.6344 230° Southwest 301 346 8,300 -900 Descending Fort Worth Center
08:59PM 33.3700 -96.7144 230° Southwest 296 341 7,200 -1,020 Descending Fort Worth Center
09:00PM 33.3222 -96.7769 228° Southwest 291 335 6,300 -600 Descending Fort Worth Center
09:01PM 33.2600 -96.8469 223° Southwest 286 329 6,000 -300 Descending Fort Worth Center
09:02PM 33.1956 -96.8972 213° Southwest 286 329 5,800 -660 Descending Fort Worth Center
09:03PM 33.1331 -96.9347 207° Southwest 281 323 4,700 -1,140 Descending Fort Worth Center